Bright Ocean — HOGQ — position and weather

sailwx.info

Track history (hours):
 
Tides and Currents Weather Stations Pressure Air Temp Water Temp Dewpoint Dewpoint Depression Visibility Wind Speed Wind Dir Waves Ship Positions

Bright Ocean

Last reported at 2016-Jul-28 19:33 UTC. Time now 2016-Jul-28 20:17 UTC.
Position N 43°16' W 124°52'.

Length 178 m; draft 9.7 m.

Type: Cargo ship. MMSI: 373816000.

Date/timePositionNaut miles runAvg speedWind from/ knotsBaromVisibWave heightAir tempDewpointWater temp
2016-Jul-28 19:33N 43°16' W 124°52'1312.6
2016-Jul-28 18:33N 43°28' W 124°51'1212.2
2016-Jul-28 17:33N 43°40' W 124°50'1312.4
2016-Jul-28 16:29N 43°53' W 124°48'1212.7
2016-Jul-28 15:32N 44°05' W 124°47'1312.8
2016-Jul-28 14:33N 44°18' W 124°45'1312.8
2016-Jul-28 13:33N 44°31' W 124°44'1312.6
2016-Jul-28 12:32N 44°44' W 124°42'1212.4
2016-Jul-28 11:33N 44°55' W 124°38'1312.4
2016-Jul-28 10:33N 45°08' W 124°34'1212.1
2016-Jul-28 09:34N 45°19' W 124°31'1212.3
2016-Jul-28 08:34N 45°31' W 124°26'1312.6
2016-Jul-28 07:33N 45°44' W 124°22'1212.5
2016-Jul-28 06:34N 45°56' W 124°18'1312.8
2016-Jul-28 05:34N 46°08' W 124°14'1111.5
2016-Jul-28 04:34N 46°15' W 124°01'9 9.2
2016-Jul-28 03:34N 46°12' W 123°48'1010.1
2016-Jul-28 02:34N 46°15' W 123°34'8 7.7
2016-Jul-28 01:34N 46°11' W 123°25'1010.0
2016-Jul-28 00:33N 46°11' W 123°11'1211.7
2016-Jul-27 23:33N 46°06' W 122°56'4 3.7
2016-Jul-27 22:31N 46°03' W 122°53'0 0.0
2016-Jul-27 21:31N 46°03' W 122°53'0 0.0
2016-Jul-27 20:25N 46°03' W 122°53'0 0.0
2016-Jul-27 19:31N 46°03' W 122°53'0 0.0
2016-Jul-27 18:28N 46°03' W 122°53'0 0.0
2016-Jul-27 17:31N 46°03' W 122°53'0 0.0
2016-Jul-27 16:31N 46°03' W 122°53'0 0.0
2016-Jul-27 15:31N 46°03' W 122°53'0 0.0
2016-Jul-27 14:25N 46°03' W 122°53'0 0.0
2016-Jul-27 13:31N 46°03' W 122°53'1 0.7
2016-Jul-27 12:34N 46°03' W 122°53'7 6.8
2016-Jul-27 11:33N 46°08' W 123°00'9 8.6
2016-Jul-27 10:33N 46°11' W 123°12'8 8.5
2016-Jul-27 09:34N 46°09' W 123°24'8 8.1
2016-Jul-27 08:34N 46°16' W 123°30'9 9.2
2016-Jul-27 07:33N 46°14' W 123°43'8 8.2
2016-Jul-27 06:33N 46°11' W 123°54'7 7.4
2016-Jul-27 05:33N 46°15' W 124°03'9 8.7
2016-Jul-27 04:33N 46°11' W 124°14'9 9.3
2016-Jul-27 03:33N 46°06' W 124°25'1111.1
2016-Jul-27 02:33N 46°01' W 124°39'1111.0
2016-Jul-27 01:33N 45°55' W 124°53'8 7.3
2016-Jul-27 00:31N 45°53' W 125°03'2 1.7
2016-Jul-26 23:28N 45°54' W 125°03'2 1.6
2016-Jul-26 22:31N 45°56' W 125°03'1 1.4
2016-Jul-26 21:31N 45°57' W 125°03'1 1.2
2016-Jul-26 20:31N 45°59' W 125°03'1 1.0
2016-Jul-26 19:31N 45°60' W 125°04'1 1.0
2016-Jul-26 18:31N 46°01' W 125°04'1 0.9
2016-Jul-26 17:31N 46°02' W 125°03'1 1.0
2016-Jul-26 16:31N 46°02' W 125°03'1 1.1
2016-Jul-26 15:31N 46°03' W 125°03'1 1.2
2016-Jul-26 14:25N 46°05' W 125°02'1 1.3
2016-Jul-26 13:25N 46°06' W 125°01'1 1.3
2016-Jul-26 12:31N 46°07' W 125°01'1 1.3
2016-Jul-26 11:31N 46°08' W 125°00'2 1.6
2016-Jul-26 10:28N 46°10' W 124°59'2 1.7
2016-Jul-26 09:31N 46°11' W 124°59'2 1.7
2016-Jul-26 08:31N 46°13' W 124°58'2 1.7
2016-Jul-26 07:31N 46°15' W 124°58'2 1.6
2016-Jul-26 06:31N 46°16' W 124°58'6 6.1
2016-Jul-26 05:33N 46°13' W 125°05'1211.9
2016-Jul-26 04:33N 46°13' W 125°23'1212.1
2016-Jul-26 03:33N 46°14' W 125°40'1212.0
2016-Jul-26 02:33N 46°14' W 125°57'1212.1
2016-Jul-26 01:33N 46°15' W 126°15'1312.2
2016-Jul-26 00:30N 46°16' W 126°33'1112.1
2016-Jul-25 23:33N 46°16' W 126°50'10 9.9
2016-Jul-25 22:34N 46°16' W 127°04'1211.9
2016-Jul-25 21:33N 46°17' W 127°21'1312.0
2016-Jul-25 20:29N 46°17' W 127°40'1211.9
2016-Jul-25 19:30N 46°18' W 127°57'  
Track history (hours):
 
Tides and Currents Weather Stations Pressure Air Temp Water Temp Dewpoint Dewpoint Depression Visibility Wind Speed Wind Dir Waves Ship Positions

Bright Ocean

Last reported at 2016-Jul-28 19:33 UTC. Time now 2016-Jul-28 20:17 UTC.
Position N 43°16' W 124°52'.

Length 178 m; draft 9.7 m.

Type: Cargo ship. MMSI: 373816000.

Date/timePositionNaut miles runAvg speedWind from/ knotsBaromVisibWave heightAir tempDewpointWater temp
2016-Jul-28 19:33N 43°16' W 124°52'1312.6
2016-Jul-28 18:33N 43°28' W 124°51'1212.2
2016-Jul-28 17:33N 43°40' W 124°50'1312.4
2016-Jul-28 16:29N 43°53' W 124°48'1212.7
2016-Jul-28 15:32N 44°05' W 124°47'1312.8
2016-Jul-28 14:33N 44°18' W 124°45'1312.8
2016-Jul-28 13:33N 44°31' W 124°44'1312.6
2016-Jul-28 12:32N 44°44' W 124°42'1212.4
2016-Jul-28 11:33N 44°55' W 124°38'1312.4
2016-Jul-28 10:33N 45°08' W 124°34'1212.1
2016-Jul-28 09:34N 45°19' W 124°31'1212.3
2016-Jul-28 08:34N 45°31' W 124°26'1312.6
2016-Jul-28 07:33N 45°44' W 124°22'1212.5
2016-Jul-28 06:34N 45°56' W 124°18'1312.8
2016-Jul-28 05:34N 46°08' W 124°14'1111.5
2016-Jul-28 04:34N 46°15' W 124°01'9 9.2
2016-Jul-28 03:34N 46°12' W 123°48'1010.1
2016-Jul-28 02:34N 46°15' W 123°34'8 7.7
2016-Jul-28 01:34N 46°11' W 123°25'1010.0
2016-Jul-28 00:33N 46°11' W 123°11'1211.7
2016-Jul-27 23:33N 46°06' W 122°56'4 3.7
2016-Jul-27 22:31N 46°03' W 122°53'0 0.0
2016-Jul-27 21:31N 46°03' W 122°53'0 0.0
2016-Jul-27 20:25N 46°03' W 122°53'0 0.0
2016-Jul-27 19:31N 46°03' W 122°53'0 0.0
2016-Jul-27 18:28N 46°03' W 122°53'0 0.0
2016-Jul-27 17:31N 46°03' W 122°53'0 0.0
2016-Jul-27 16:31N 46°03' W 122°53'0 0.0
2016-Jul-27 15:31N 46°03' W 122°53'0 0.0
2016-Jul-27 14:25N 46°03' W 122°53'0 0.0
2016-Jul-27 13:31N 46°03' W 122°53'1 0.7
2016-Jul-27 12:34N 46°03' W 122°53'7 6.8
2016-Jul-27 11:33N 46°08' W 123°00'9 8.6
2016-Jul-27 10:33N 46°11' W 123°12'8 8.5
2016-Jul-27 09:34N 46°09' W 123°24'8 8.1
2016-Jul-27 08:34N 46°16' W 123°30'9 9.2
2016-Jul-27 07:33N 46°14' W 123°43'8 8.2
2016-Jul-27 06:33N 46°11' W 123°54'7 7.4
2016-Jul-27 05:33N 46°15' W 124°03'9 8.7
2016-Jul-27 04:33N 46°11' W 124°14'9 9.3
2016-Jul-27 03:33N 46°06' W 124°25'1111.1
2016-Jul-27 02:33N 46°01' W 124°39'1111.0
2016-Jul-27 01:33N 45°55' W 124°53'8 7.3
2016-Jul-27 00:31N 45°53' W 125°03'2 1.7
2016-Jul-26 23:28N 45°54' W 125°03'2 1.6
2016-Jul-26 22:31N 45°56' W 125°03'1 1.4
2016-Jul-26 21:31N 45°57' W 125°03'1 1.2
2016-Jul-26 20:31N 45°59' W 125°03'1 1.0
2016-Jul-26 19:31N 45°60' W 125°04'1 1.0
2016-Jul-26 18:31N 46°01' W 125°04'1 0.9
2016-Jul-26 17:31N 46°02' W 125°03'1 1.0
2016-Jul-26 16:31N 46°02' W 125°03'1 1.1
2016-Jul-26 15:31N 46°03' W 125°03'1 1.2
2016-Jul-26 14:25N 46°05' W 125°02'1 1.3
2016-Jul-26 13:25N 46°06' W 125°01'1 1.3
2016-Jul-26 12:31N 46°07' W 125°01'1 1.3
2016-Jul-26 11:31N 46°08' W 125°00'2 1.6
2016-Jul-26 10:28N 46°10' W 124°59'2 1.7
2016-Jul-26 09:31N 46°11' W 124°59'2 1.7
2016-Jul-26 08:31N 46°13' W 124°58'2 1.7
2016-Jul-26 07:31N 46°15' W 124°58'2 1.6
2016-Jul-26 06:31N 46°16' W 124°58'6 6.1
2016-Jul-26 05:33N 46°13' W 125°05'1211.9
2016-Jul-26 04:33N 46°13' W 125°23'1212.1
2016-Jul-26 03:33N 46°14' W 125°40'1212.0
2016-Jul-26 02:33N 46°14' W 125°57'1212.1
2016-Jul-26 01:33N 46°15' W 126°15'1312.2
2016-Jul-26 00:30N 46°16' W 126°33'1112.1
2016-Jul-25 23:33N 46°16' W 126°50'10 9.9
2016-Jul-25 22:34N 46°16' W 127°04'1211.9
2016-Jul-25 21:33N 46°17' W 127°21'1312.0
2016-Jul-25 20:29N 46°17' W 127°40'1211.9
2016-Jul-25 19:30N 46°18' W 127°57'  

Dump ship's entire track history